Time;durP1;ratioP1;P1;durP2;ratioP2;P2;SDS_P1;SDS_P2;PMS_P1;PMS_P2;Temp;Humidity;BMP_temperature;BMP_pressure;BME280_temperature;BME280_humidity;BME280_pressure;Samples;Min_cycle;Max_cycle;Signal;HPM_P1;HPM_P2
2022/03/20 00:01:47;;;;;;;20.23;16.07;;;;;;;;;;5063292;28;20220;-74
2022/03/20 00:04:13;;;;;;;24.93;16.57;;;;;;;;;;5058379;28;20189;-76
2022/03/20 00:06:39;;;;;;;24.00;16.30;;;;;;;;;;5076021;28;20178;-75
2022/03/20 00:09:06;;;;;;;22.20;15.43;;;;;;;;;;5059225;28;20263;-72
2022/03/20 00:11:32;;;;;;;23.63;16.60;;;;;;;;;;5057733;28;20197;-78
2022/03/20 00:13:58;;;;;;;22.87;16.30;;;;;;;;;;5056087;28;20661;-76
2022/03/20 00:16:29;;;;;;;22.80;15.83;;;;;;;;;;5058577;28;20206;-76
2022/03/20 00:18:56;;;;;;;21.57;16.10;;;;;;;;;;5062223;28;20193;-73
2022/03/20 00:21:22;;;;;;;21.37;16.07;;;;;;;;;;5068630;28;20205;-77
2022/03/20 00:23:48;;;;;;;23.87;16.90;;;;;;;;;;5065712;28;20185;-75
2022/03/20 00:26:16;;;;;;;23.63;16.13;;;;;;;;;;5060470;28;20181;-78
2022/03/20 00:28:44;;;;;;;25.30;16.57;;;;;;;;;;5060224;28;20672;-73
2022/03/20 00:31:10;;;;;;;22.77;16.07;;;;;;;;;;5061457;28;20205;-74
2022/03/20 00:33:36;;;;;;;24.00;16.60;;;;;;;;;;5053717;28;20196;-74
2022/03/20 00:36:04;;;;;;;23.27;15.30;;;;;;;;;;5061352;28;20181;-73
2022/03/20 00:38:30;;;;;;;23.13;16.80;;;;;;;;;;5061855;28;20192;-74
2022/03/20 00:40:56;;;;;;;21.93;16.47;;;;;;;;;;5038446;28;20201;-74
2022/03/20 00:43:22;;;;;;;22.47;16.43;;;;;;;;;;5062235;28;20185;-74
2022/03/20 00:45:48;;;;;;;24.83;16.00;;;;;;;;;;5060708;28;20553;-74
2022/03/20 00:48:15;;;;;;;23.63;16.53;;;;;;;;;;5059782;28;20308;-77
2022/03/20 00:50:41;;;;;;;25.63;16.87;;;;;;;;;;5062140;28;20196;-75
2022/03/20 00:53:07;;;;;;;29.17;17.00;;;;;;;;;;5064351;28;20201;-75
2022/03/20 00:55:33;;;;;;;27.20;16.53;;;;;;;;;;5064159;28;20583;-75
2022/03/20 00:58:00;;;;;;;24.47;17.03;;;;;;;;;;5060556;28;20332;-75
2022/03/20 01:00:26;;;;;;;23.77;16.67;;;;;;;;;;5059672;28;20209;-75
2022/03/20 01:02:52;;;;;;;26.30;16.73;;;;;;;;;;5059320;28;20213;-75
2022/03/20 01:05:19;;;;;;;24.20;17.20;;;;;;;;;;5057314;28;20177;-75
2022/03/20 01:07:46;;;;;;;25.60;16.20;;;;;;;;;;5061417;28;20205;-75
2022/03/20 01:10:13;;;;;;;22.67;16.33;;;;;;;;;;5059111;28;20238;-76
2022/03/20 01:12:40;;;;;;;24.60;17.10;;;;;;;;;;5062249;28;20208;-75
2022/03/20 01:15:08;;;;;;;26.40;18.83;;;;;;;;;;5057631;28;20209;-75
2022/03/20 01:17:35;;;;;;;24.73;17.30;;;;;;;;;;5036102;28;20189;-76
2022/03/20 01:20:01;;;;;;;22.67;16.70;;;;;;;;;;5051443;28;20193;-75
2022/03/20 01:22:27;;;;;;;24.70;16.63;;;;;;;;;;5062830;28;20208;-75
2022/03/20 01:24:54;;;;;;;24.80;17.60;;;;;;;;;;5062837;28;20181;-75
2022/03/20 01:27:20;;;;;;;26.20;17.50;;;;;;;;;;5057558;28;20178;-75
2022/03/20 01:29:46;;;;;;;22.97;17.00;;;;;;;;;;5060111;28;20191;-75
2022/03/20 01:32:12;;;;;;;25.07;17.00;;;;;;;;;;5058787;28;20206;-75
2022/03/20 01:34:39;;;;;;;23.40;16.90;;;;;;;;;;5040326;28;20678;-75
2022/03/20 01:37:05;;;;;;;24.87;16.93;;;;;;;;;;5058433;28;20199;-76
2022/03/20 01:39:32;;;;;;;23.87;17.43;;;;;;;;;;5059890;28;20188;-75
2022/03/20 01:41:58;;;;;;;21.33;16.33;;;;;;;;;;5058131;28;20212;-76
2022/03/20 01:44:34;;;;;;;25.10;17.53;;;;;;;;;;5059209;28;20192;-75
2022/03/20 01:47:01;;;;;;;26.50;17.70;;;;;;;;;;5058103;28;20197;-76
2022/03/20 01:49:28;;;;;;;26.67;17.27;;;;;;;;;;5058309;28;20725;-76
2022/03/20 01:54:44;;;;;;;26.70;17.70;;;;;;;;;;5063499;28;20188;-76
2022/03/20 01:57:13;;;;;;;26.20;17.47;;;;;;;;;;5064132;28;20216;-75
2022/03/20 01:59:39;;;;;;;25.40;17.60;;;;;;;;;;5071822;28;20176;-76
2022/03/20 02:02:06;;;;;;;29.63;18.43;;;;;;;;;;5054652;28;20293;-75
2022/03/20 02:04:36;;;;;;;24.37;17.10;;;;;;;;;;5055667;28;20273;-76
2022/03/20 02:07:03;;;;;;;27.20;17.77;;;;;;;;;;5056754;28;20632;-75
2022/03/20 02:09:29;;;;;;;24.97;17.03;;;;;;;;;;5063824;28;20220;-75
2022/03/20 02:11:56;;;;;;;22.43;16.87;;;;;;;;;;5075009;28;20703;-75
2022/03/20 02:14:22;;;;;;;24.60;17.60;;;;;;;;;;5067417;28;20802;-76
2022/03/20 02:16:48;;;;;;;25.03;17.73;;;;;;;;;;5050964;28;20222;-76
2022/03/20 02:19:15;;;;;;;23.77;17.47;;;;;;;;;;5066889;28;20197;-76
2022/03/20 02:21:41;;;;;;;26.33;17.20;;;;;;;;;;5060788;28;20290;-76
2022/03/20 02:24:27;;;;;;;25.13;17.67;;;;;;;;;;5055284;28;20194;-77
2022/03/20 02:27:02;;;;;;;24.20;17.10;;;;;;;;;;5054785;28;20188;-76
2022/03/20 02:29:28;;;;;;;24.03;17.57;;;;;;;;;;5062693;28;20594;-76
2022/03/20 02:31:54;;;;;;;28.77;18.17;;;;;;;;;;5046882;28;20240;-76
2022/03/20 02:34:21;;;;;;;25.33;18.13;;;;;;;;;;5064841;28;20185;-76
2022/03/20 02:36:47;;;;;;;26.17;18.33;;;;;;;;;;5065841;28;20199;-76
2022/03/20 02:39:13;;;;;;;26.67;18.03;;;;;;;;;;5049424;28;20202;-76
2022/03/20 02:41:39;;;;;;;27.20;17.97;;;;;;;;;;5042035;28;20286;-76
2022/03/20 02:44:05;;;;;;;26.63;18.07;;;;;;;;;;5059218;28;20193;-76
2022/03/20 02:46:37;;;;;;;32.67;18.97;;;;;;;;;;5075658;28;20204;-76
2022/03/20 02:49:06;;;;;;;28.10;18.57;;;;;;;;;;5063331;28;20220;-76
2022/03/20 02:51:33;;;;;;;27.83;19.10;;;;;;;;;;5045996;28;20205;-76
2022/03/20 02:54:00;;;;;;;29.37;19.70;;;;;;;;;;5058577;28;20210;-76
2022/03/20 02:56:28;;;;;;;28.80;18.53;;;;;;;;;;5057453;28;20304;-76
2022/03/20 02:58:54;;;;;;;26.73;17.67;;;;;;;;;;5058108;28;20204;-76
2022/03/20 03:01:21;;;;;;;25.97;17.60;;;;;;;;;;5054512;28;20310;-75
2022/03/20 03:03:47;;;;;;;26.80;18.63;;;;;;;;;;5058261;28;20561;-76
2022/03/20 03:06:13;;;;;;;25.80;18.07;;;;;;;;;;5062197;28;20243;-76
2022/03/20 03:11:25;;;;;;;26.63;17.87;;;;;;;;;;5061643;28;20201;-75
2022/03/20 03:13:51;;;;;;;27.67;18.87;;;;;;;;;;5046790;28;20664;-76
2022/03/20 03:16:17;;;;;;;27.37;18.40;;;;;;;;;;5057912;28;20668;-76
2022/03/20 03:18:47;;;;;;;29.80;19.47;;;;;;;;;;5060398;28;21587;-75
2022/03/20 03:21:14;;;;;;;27.43;18.53;;;;;;;;;;5062174;28;20213;-75
2022/03/20 03:23:41;;;;;;;28.33;19.10;;;;;;;;;;5045954;28;20190;-76
2022/03/20 03:26:07;;;;;;;29.37;19.60;;;;;;;;;;5061687;28;20201;-76
2022/03/20 03:28:34;;;;;;;26.83;18.40;;;;;;;;;;5067632;28;20292;-75
2022/03/20 03:31:04;;;;;;;26.37;18.33;;;;;;;;;;5061206;28;20192;-76
2022/03/20 03:33:32;;;;;;;26.83;18.37;;;;;;;;;;5066226;28;20868;-76
2022/03/20 03:35:58;;;;;;;26.50;18.87;;;;;;;;;;5068489;28;20777;-76
2022/03/20 03:38:34;;;;;;;28.13;20.07;;;;;;;;;;5063453;28;20204;-76
2022/03/20 03:41:01;;;;;;;27.23;18.47;;;;;;;;;;5049627;28;20272;-75
2022/03/20 03:43:28;;;;;;;28.17;18.93;;;;;;;;;;5066071;28;20570;-75
2022/03/20 03:45:56;;;;;;;32.23;19.13;;;;;;;;;;5067899;28;20189;-76
2022/03/20 03:48:22;;;;;;;28.63;19.83;;;;;;;;;;5068793;28;20204;-76
2022/03/20 03:50:49;;;;;;;29.90;19.77;;;;;;;;;;5066587;28;20268;-76
2022/03/20 03:53:15;;;;;;;28.50;19.60;;;;;;;;;;5062356;28;20200;-76
2022/03/20 03:55:43;;;;;;;26.43;18.67;;;;;;;;;;5064989;28;20242;-75
2022/03/20 03:58:10;;;;;;;27.60;19.60;;;;;;;;;;5066105;28;20663;-76
2022/03/20 04:00:36;;;;;;;25.90;18.17;;;;;;;;;;5065341;28;20299;-75
2022/03/20 04:03:03;;;;;;;26.50;19.00;;;;;;;;;;5067560;28;20580;-76
2022/03/20 04:05:29;;;;;;;26.87;18.17;;;;;;;;;;5054191;28;20723;-76
2022/03/20 04:07:56;;;;;;;27.07;17.93;;;;;;;;;;5064668;28;20205;-76
2022/03/20 04:10:23;;;;;;;25.27;18.13;;;;;;;;;;5055721;28;20185;-76
2022/03/20 04:12:49;;;;;;;26.17;18.90;;;;;;;;;;5065576;28;20572;-76
2022/03/20 04:15:17;;;;;;;27.97;18.77;;;;;;;;;;5057854;28;20192;-76
2022/03/20 04:17:44;;;;;;;27.43;18.87;;;;;;;;;;5057442;28;20208;-76
2022/03/20 04:20:14;;;;;;;24.57;17.47;;;;;;;;;;5054256;28;20546;-76
2022/03/20 04:23:42;;;;;;;23.80;16.97;;;;;;;;;;5058880;28;20211;-76
2022/03/20 04:25:29;;;;;;;27.17;17.30;;;;;;;;;;5059354;28;20187;-75
2022/03/20 04:27:56;;;;;;;25.40;18.20;;;;;;;;;;5055717;28;20263;-75
2022/03/20 04:30:25;;;;;;;26.70;18.23;;;;;;;;;;5054964;28;20211;-76
2022/03/20 04:32:54;;;;;;;30.13;19.90;;;;;;;;;;5054848;28;20215;-76
2022/03/20 04:35:24;;;;;;;28.23;19.50;;;;;;;;;;5057367;28;20802;-76
2022/03/20 04:37:54;;;;;;;26.23;18.90;;;;;;;;;;5056641;28;20189;-76
2022/03/20 04:40:22;;;;;;;28.17;19.20;;;;;;;;;;5056037;28;20185;-75
2022/03/20 04:42:49;;;;;;;26.87;19.70;;;;;;;;;;5062379;28;20227;-75
2022/03/20 04:45:15;;;;;;;26.13;19.10;;;;;;;;;;5063209;28;20193;-76
2022/03/20 04:58:43;;;;;;;27.60;18.97;;;;;;;;;;5058154;28;20197;-76
2022/03/20 05:01:10;;;;;;;31.23;20.17;;;;;;;;;;5056631;28;20240;-75
2022/03/20 05:03:37;;;;;;;28.80;19.80;;;;;;;;;;5057948;28;20271;-76
2022/03/20 05:06:05;;;;;;;27.53;19.30;;;;;;;;;;5055854;28;20200;-76
2022/03/20 05:08:32;;;;;;;29.37;19.13;;;;;;;;;;5059134;28;20209;-75
2022/03/20 05:13:43;;;;;;;29.67;19.90;;;;;;;;;;5063047;28;20242;-76
2022/03/20 05:16:09;;;;;;;29.07;18.80;;;;;;;;;;5063546;28;20260;-76
2022/03/20 05:18:35;;;;;;;26.70;19.47;;;;;;;;;;5062236;28;20672;-75
2022/03/20 05:21:02;;;;;;;29.23;20.07;;;;;;;;;;5057188;28;20196;-75
2022/03/20 05:23:28;;;;;;;27.97;19.87;;;;;;;;;;5059663;28;20173;-76
2022/03/20 05:25:54;;;;;;;26.77;18.57;;;;;;;;;;5066460;28;20181;-76
2022/03/20 05:28:21;;;;;;;28.63;19.77;;;;;;;;;;5066465;28;20211;-76
2022/03/20 05:30:47;;;;;;;25.23;17.20;;;;;;;;;;5061680;28;20191;-76
2022/03/20 05:33:16;;;;;;;33.17;23.40;;;;;;;;;;5045235;28;20206;-75
2022/03/20 05:35:45;;;;;;;27.03;19.33;;;;;;;;;;5065390;28;20265;-75
2022/03/20 05:38:12;;;;;;;26.27;19.10;;;;;;;;;;5064169;28;20188;-76
2022/03/20 05:40:38;;;;;;;27.60;20.07;;;;;;;;;;5080546;28;20196;-75
2022/03/20 05:43:08;;;;;;;25.83;18.37;;;;;;;;;;5061545;28;20816;-76
2022/03/20 05:45:34;;;;;;;25.33;18.27;;;;;;;;;;5060441;28;20196;-76
2022/03/20 05:48:00;;;;;;;29.07;20.10;;;;;;;;;;5065132;28;20219;-76
2022/03/20 05:50:26;;;;;;;27.67;19.60;;;;;;;;;;5069708;28;20184;-76
2022/03/20 05:52:53;;;;;;;25.67;18.40;;;;;;;;;;5067240;28;20192;-76
2022/03/20 05:58:01;;;;;;;27.63;18.57;;;;;;;;;;5062602;28;20707;-76
2022/03/20 05:58:05;;;;;;;24.73;18.07;;;;;;;;;;5062372;28;20189;-76
2022/03/20 06:00:31;;;;;;;25.30;17.83;;;;;;;;;;5066679;28;20637;-76
2022/03/20 06:02:58;;;;;;;26.50;18.67;;;;;;;;;;5048635;28;20208;-76
2022/03/20 06:05:24;;;;;;;25.57;18.10;;;;;;;;;;5047408;28;20201;-76
2022/03/20 06:07:52;;;;;;;25.23;17.03;;;;;;;;;;5064555;28;20251;-76
2022/03/20 06:10:19;;;;;;;28.07;19.00;;;;;;;;;;5073330;28;20258;-76
2022/03/20 06:12:45;;;;;;;29.37;19.80;;;;;;;;;;5066350;28;20349;-75
2022/03/20 06:15:12;;;;;;;26.00;18.53;;;;;;;;;;5050599;28;20247;-76
2022/03/20 06:17:45;;;;;;;27.17;19.50;;;;;;;;;;5066699;28;20202;-76
2022/03/20 06:20:12;;;;;;;26.67;17.53;;;;;;;;;;5065254;28;20182;-76
2022/03/20 06:22:38;;;;;;;26.00;18.17;;;;;;;;;;5065266;28;20540;-76
2022/03/20 06:25:08;;;;;;;28.20;18.63;;;;;;;;;;5056661;28;20194;-75
2022/03/20 06:27:41;;;;;;;23.13;17.80;;;;;;;;;;5063683;28;20633;-76
2022/03/20 06:30:07;;;;;;;25.90;20.03;;;;;;;;;;5067879;28;20713;-76
2022/03/20 06:32:35;;;;;;;27.90;19.20;;;;;;;;;;5062893;28;20201;-76
2022/03/20 06:35:01;;;;;;;29.30;19.90;;;;;;;;;;5057460;28;20193;-76
2022/03/20 06:37:28;;;;;;;28.63;18.63;;;;;;;;;;5064579;28;20763;-76
2022/03/20 06:39:56;;;;;;;30.53;20.60;;;;;;;;;;5061427;28;20216;-75
2022/03/20 06:42:22;;;;;;;25.90;18.83;;;;;;;;;;5062184;28;20233;-76
2022/03/20 06:44:49;;;;;;;28.70;21.00;;;;;;;;;;5039505;28;20248;-76
2022/03/20 06:47:15;;;;;;;31.70;21.27;;;;;;;;;;5066565;28;20338;-76
2022/03/20 06:49:43;;;;;;;30.70;22.07;;;;;;;;;;5062538;28;20201;-76
2022/03/20 06:52:09;;;;;;;32.10;21.90;;;;;;;;;;5064538;28;20205;-76
2022/03/20 06:54:35;;;;;;;30.13;21.47;;;;;;;;;;5065763;28;20731;-76
2022/03/20 06:57:01;;;;;;;30.67;21.87;;;;;;;;;;5059295;28;20181;-76
2022/03/20 06:59:27;;;;;;;29.43;21.33;;;;;;;;;;5057414;28;20217;-76
2022/03/20 07:01:54;;;;;;;29.97;20.57;;;;;;;;;;5061360;28;20236;-75
2022/03/20 07:04:20;;;;;;;34.37;22.03;;;;;;;;;;5058508;28;20204;-76
2022/03/20 07:06:46;;;;;;;30.37;22.93;;;;;;;;;;5058862;28;20189;-75
2022/03/20 07:09:13;;;;;;;28.93;21.53;;;;;;;;;;5058736;28;20201;-76
2022/03/20 07:11:39;;;;;;;30.93;21.63;;;;;;;;;;5042330;28;20740;-77
2022/03/20 07:14:05;;;;;;;30.80;21.70;;;;;;;;;;5063024;28;20753;-76
2022/03/20 07:16:33;;;;;;;29.80;22.60;;;;;;;;;;5065358;28;20393;-75
2022/03/20 07:18:59;;;;;;;28.90;20.47;;;;;;;;;;5063159;28;20671;-76
2022/03/20 07:21:26;;;;;;;28.17;20.43;;;;;;;;;;5061493;28;20210;-76
2022/03/20 07:23:54;;;;;;;29.67;21.47;;;;;;;;;;5062646;28;20200;-75
2022/03/20 07:31:50;;;;;;;30.87;23.00;;;;;;;;;;5060584;28;20208;-75
2022/03/20 07:34:16;;;;;;;29.20;21.97;;;;;;;;;;5067984;28;20671;-76
2022/03/20 07:36:42;;;;;;;29.40;21.90;;;;;;;;;;5064154;28;20181;-77
2022/03/20 07:39:08;;;;;;;33.77;22.83;;;;;;;;;;5071219;28;20254;-79
2022/03/20 07:41:35;;;;;;;30.47;21.90;;;;;;;;;;5069770;28;20204;-83
2022/03/20 07:44:02;;;;;;;32.53;23.07;;;;;;;;;;5054721;28;20635;-83
2022/03/20 07:46:28;;;;;;;30.27;22.77;;;;;;;;;;5068823;28;20185;-86
2022/03/20 07:48:54;;;;;;;30.93;23.00;;;;;;;;;;5038109;28;20208;-81
2022/03/20 07:51:21;;;;;;;30.00;22.93;;;;;;;;;;5054460;28;20617;-82
2022/03/20 07:53:50;;;;;;;30.17;22.40;;;;;;;;;;5071977;28;20561;-80
2022/03/20 07:56:20;;;;;;;32.40;23.77;;;;;;;;;;5068964;28;20185;-83
2022/03/20 07:58:46;;;;;;;32.03;23.67;;;;;;;;;;5070048;28;20242;-83
2022/03/20 08:01:14;;;;;;;30.07;22.23;;;;;;;;;;5053189;28;20220;-83
2022/03/20 08:03:41;;;;;;;29.30;22.57;;;;;;;;;;5054671;28;20743;-85
2022/03/20 08:06:08;;;;;;;27.60;21.77;;;;;;;;;;5055269;28;20188;-77
2022/03/20 08:08:39;;;;;;;28.43;21.90;;;;;;;;;;5070841;28;20703;-81
2022/03/20 08:11:05;;;;;;;30.73;23.10;;;;;;;;;;5036597;28;20653;-81
2022/03/20 08:13:31;;;;;;;29.50;22.47;;;;;;;;;;5067418;28;20199;-81
2022/03/20 08:15:58;;;;;;;31.37;23.13;;;;;;;;;;5067267;28;20212;-81
2022/03/20 08:18:24;;;;;;;32.60;23.77;;;;;;;;;;5068301;28;20270;-81
2022/03/20 08:20:50;;;;;;;31.20;22.63;;;;;;;;;;5085199;28;20184;-81
2022/03/20 08:23:16;;;;;;;32.70;22.67;;;;;;;;;;5049885;28;20656;-81
2022/03/20 08:25:43;;;;;;;27.87;21.63;;;;;;;;;;5069585;28;20683;-81
2022/03/20 08:28:10;;;;;;;29.93;23.00;;;;;;;;;;5065889;28;20248;-81
2022/03/20 08:30:40;;;;;;;32.83;23.33;;;;;;;;;;5063238;28;20537;-81
2022/03/20 08:33:06;;;;;;;30.73;22.40;;;;;;;;;;5052553;28;20216;-81
2022/03/20 08:35:32;;;;;;;29.33;22.07;;;;;;;;;;5057078;28;20267;-83
2022/03/20 08:37:59;;;;;;;30.97;22.47;;;;;;;;;;5070622;28;20189;-81
2022/03/20 08:40:26;;;;;;;32.27;22.57;;;;;;;;;;5049672;28;20481;-81
2022/03/20 08:42:53;;;;;;;28.47;22.27;;;;;;;;;;5065540;28;20212;-81
2022/03/20 08:45:20;;;;;;;30.90;23.27;;;;;;;;;;5053940;28;20193;-81
2022/03/20 08:47:47;;;;;;;31.57;22.93;;;;;;;;;;5050376;28;20232;-81
2022/03/20 08:50:14;;;;;;;28.73;22.27;;;;;;;;;;5052277;28;20699;-81
2022/03/20 08:52:42;;;;;;;31.50;23.73;;;;;;;;;;5076915;28;21480;-81
2022/03/20 08:55:11;;;;;;;30.47;22.43;;;;;;;;;;5069172;28;20192;-81
2022/03/20 08:57:39;;;;;;;31.23;22.93;;;;;;;;;;5068571;28;20185;-81
2022/03/20 09:00:06;;;;;;;28.90;22.23;;;;;;;;;;5050447;28;20201;-81
2022/03/20 09:02:32;;;;;;;29.50;22.10;;;;;;;;;;5051217;28;20215;-81
2022/03/20 09:04:59;;;;;;;29.77;22.67;;;;;;;;;;5051372;28;20710;-80
2022/03/20 09:07:25;;;;;;;27.23;21.50;;;;;;;;;;5060313;28;20189;-81
2022/03/20 09:09:51;;;;;;;27.50;21.07;;;;;;;;;;5048411;28;20256;-81
2022/03/20 09:12:17;;;;;;;26.60;19.80;;;;;;;;;;5068267;28;20201;-81
2022/03/20 09:14:45;;;;;;;25.93;20.57;;;;;;;;;;5066344;28;20197;-81
2022/03/20 09:19:58;;;;;;;26.93;21.10;;;;;;;;;;5068947;28;20181;-81
2022/03/20 09:22:27;;;;;;;28.10;20.53;;;;;;;;;;5068172;28;20588;-81
2022/03/20 09:24:54;;;;;;;27.27;20.77;;;;;;;;;;5069636;28;20185;-81
2022/03/20 09:27:22;;;;;;;25.13;19.70;;;;;;;;;;5067560;28;20202;-81
2022/03/20 09:29:49;;;;;;;25.97;20.70;;;;;;;;;;5049817;28;20968;-81
2022/03/20 09:32:15;;;;;;;26.50;20.10;;;;;;;;;;5067586;28;20951;-82
2022/03/20 09:34:41;;;;;;;24.50;19.53;;;;;;;;;;5067750;28;20181;-81
2022/03/20 09:37:07;;;;;;;32.03;20.77;;;;;;;;;;5064994;28;20181;-78
2022/03/20 09:39:34;;;;;;;25.50;19.50;;;;;;;;;;5064798;28;20722;-80
2022/03/20 09:42:02;;;;;;;23.57;18.40;;;;;;;;;;5064956;28;20244;-80
2022/03/20 09:44:29;;;;;;;27.87;21.37;;;;;;;;;;5067446;28;20302;-81
2022/03/20 09:46:56;;;;;;;28.00;20.53;;;;;;;;;;5049595;28;20280;-81
2022/03/20 09:49:25;;;;;;;24.67;19.93;;;;;;;;;;5068770;28;20216;-84
2022/03/20 09:51:52;;;;;;;26.43;21.13;;;;;;;;;;5066625;28;20978;-84
2022/03/20 09:54:19;;;;;;;29.13;20.57;;;;;;;;;;5050158;28;20232;-86
2022/03/20 09:56:49;;;;;;;25.40;19.73;;;;;;;;;;5046702;28;20181;-81
2022/03/20 09:59:15;;;;;;;27.37;19.70;;;;;;;;;;5068872;28;20200;-83
2022/03/20 10:01:42;;;;;;;26.33;20.07;;;;;;;;;;5053469;28;20304;-82
2022/03/20 10:04:12;;;;;;;27.77;20.77;;;;;;;;;;5071794;28;20194;-81
2022/03/20 10:06:41;;;;;;;25.70;18.73;;;;;;;;;;5052435;28;20189;-82
2022/03/20 10:09:09;;;;;;;26.63;20.33;;;;;;;;;;5067869;28;20237;-82
2022/03/20 10:11:36;;;;;;;25.30;20.23;;;;;;;;;;5055315;28;20205;-81
2022/03/20 10:14:05;;;;;;;26.37;21.13;;;;;;;;;;5071268;28;20186;-81
2022/03/20 10:16:31;;;;;;;26.87;20.97;;;;;;;;;;5064276;28;20653;-80
2022/03/20 10:18:58;;;;;;;26.50;21.27;;;;;;;;;;5069957;28;20327;-85
2022/03/20 10:21:46;;;;;;;24.03;19.57;;;;;;;;;;5060149;28;20209;-84
2022/03/20 10:24:17;;;;;;;27.90;21.40;;;;;;;;;;5070424;28;20197;-84
2022/03/20 10:26:43;;;;;;;31.20;23.00;;;;;;;;;;5041635;28;20204;-84
2022/03/20 10:29:15;;;;;;;28.13;22.97;;;;;;;;;;5051629;28;20209;-84
2022/03/20 10:31:49;;;;;;;28.93;22.77;;;;;;;;;;5068911;28;20224;-84
2022/03/20 10:34:15;;;;;;;28.67;23.17;;;;;;;;;;5070394;28;20189;-83
2022/03/20 10:36:45;;;;;;;28.63;23.17;;;;;;;;;;5056409;28;20212;-85
2022/03/20 10:39:16;;;;;;;28.30;21.97;;;;;;;;;;5071747;28;20196;-84
2022/03/20 10:41:46;;;;;;;30.03;23.43;;;;;;;;;;5053133;28;20235;-85
2022/03/20 10:44:17;;;;;;;28.87;23.63;;;;;;;;;;5053580;28;20189;-83
2022/03/20 10:46:44;;;;;;;28.03;22.77;;;;;;;;;;5054473;28;20276;-83
2022/03/20 10:49:12;;;;;;;29.43;22.57;;;;;;;;;;5043733;28;20288;-84
2022/03/20 10:51:38;;;;;;;31.60;23.83;;;;;;;;;;5075543;28;20201;-83
2022/03/20 10:54:06;;;;;;;29.20;22.70;;;;;;;;;;5072895;28;20182;-83
2022/03/20 10:56:32;;;;;;;31.17;23.70;;;;;;;;;;5053409;28;20200;-84
2022/03/20 10:58:58;;;;;;;31.53;22.93;;;;;;;;;;5062773;28;20223;-84
2022/03/20 11:01:35;;;;;;;28.70;21.87;;;;;;;;;;5072885;28;20231;-84
2022/03/20 11:04:04;;;;;;;30.97;23.20;;;;;;;;;;5070391;28;20185;-84
2022/03/20 11:06:31;;;;;;;30.40;23.87;;;;;;;;;;5034675;28;20189;-84
2022/03/20 11:08:57;;;;;;;30.87;23.37;;;;;;;;;;5074830;28;20211;-84
2022/03/20 11:11:25;;;;;;;28.67;22.03;;;;;;;;;;5053249;28;20205;-84
2022/03/20 11:13:52;;;;;;;28.67;22.30;;;;;;;;;;5057210;28;20208;-83
2022/03/20 11:16:22;;;;;;;30.00;22.73;;;;;;;;;;5071803;28;20181;-82
2022/03/20 11:18:51;;;;;;;26.40;20.70;;;;;;;;;;5065946;28;20192;-84
2022/03/20 11:21:20;;;;;;;24.77;20.67;;;;;;;;;;5039748;28;20307;-84
2022/03/20 11:23:47;;;;;;;25.40;20.97;;;;;;;;;;5059958;28;20276;-83
2022/03/20 11:26:14;;;;;;;26.30;20.73;;;;;;;;;;5059832;28;20178;-83
2022/03/20 11:28:45;;;;;;;26.97;19.70;;;;;;;;;;5039415;28;20208;-81
2022/03/20 11:31:17;;;;;;;22.80;18.67;;;;;;;;;;5058152;28;20727;-81
2022/03/20 11:33:44;;;;;;;25.17;18.13;;;;;;;;;;5076548;28;20157;-81
2022/03/20 11:36:12;;;;;;;21.23;17.73;;;;;;;;;;5082378;28;20182;-81
2022/03/20 11:38:38;;;;;;;20.53;16.50;;;;;;;;;;5069794;28;20705;-80
2022/03/20 11:41:05;;;;;;;22.17;18.30;;;;;;;;;;5074657;28;20242;-81
2022/03/20 11:43:33;;;;;;;20.57;16.67;;;;;;;;;;5058796;28;20189;-81
2022/03/20 11:46:27;;;;;;;20.60;16.77;;;;;;;;;;5075013;28;20985;-81
2022/03/20 11:49:12;;;;;;;22.33;16.73;;;;;;;;;;5068594;28;20216;-81
2022/03/20 11:51:50;;;;;;;21.27;16.53;;;;;;;;;;5055281;28;20713;-81
2022/03/20 11:54:17;;;;;;;19.60;16.23;;;;;;;;;;5074184;28;20806;-81
2022/03/20 11:56:45;;;;;;;19.80;15.47;;;;;;;;;;5075868;28;20220;-81
2022/03/20 11:59:31;;;;;;;20.17;15.33;;;;;;;;;;5079020;28;20199;-81
2022/03/20 12:02:02;;;;;;;18.67;15.40;;;;;;;;;;5074898;28;20212;-81
2022/03/20 12:04:35;;;;;;;18.03;14.03;;;;;;;;;;5070288;28;20193;-81
2022/03/20 12:07:20;;;;;;;16.00;12.50;;;;;;;;;;5060567;28;20193;-81
2022/03/20 12:09:46;;;;;;;18.97;13.93;;;;;;;;;;5079996;28;20212;-81
2022/03/20 12:12:22;;;;;;;17.30;13.73;;;;;;;;;;5075065;28;20216;-81
2022/03/20 12:14:53;;;;;;;15.53;12.73;;;;;;;;;;5077861;28;20176;-81
2022/03/20 12:17:20;;;;;;;15.67;11.17;;;;;;;;;;5080737;28;20640;-81
2022/03/20 12:19:53;;;;;;;14.63;10.90;;;;;;;;;;5076307;28;20298;-81
2022/03/20 12:22:19;;;;;;;14.63;10.70;;;;;;;;;;5054012;28;20205;-82
2022/03/20 12:24:49;;;;;;;14.93;10.27;;;;;;;;;;5056109;28;20597;-82
2022/03/20 12:27:25;;;;;;;12.60;10.57;;;;;;;;;;5061228;28;20180;-81
2022/03/20 12:29:53;;;;;;;15.10;10.27;;;;;;;;;;5067521;28;21005;-82
2022/03/20 12:32:20;;;;;;;14.70;9.60;;;;;;;;;;5052394;28;20209;-82
2022/03/20 12:35:02;;;;;;;12.73;9.60;;;;;;;;;;5075368;28;20181;-81
2022/03/20 12:37:29;;;;;;;16.43;10.80;;;;;;;;;;5065559;28;20284;-81
2022/03/20 12:40:16;;;;;;;13.40;10.37;;;;;;;;;;5056632;28;20193;-82
2022/03/20 12:42:44;;;;;;;15.73;10.33;;;;;;;;;;5063739;28;20213;-83
2022/03/20 12:45:15;;;;;;;12.00;9.60;;;;;;;;;;5082848;28;20196;-82
2022/03/20 12:47:52;;;;;;;14.77;9.37;;;;;;;;;;5079329;28;20777;-83
2022/03/20 12:50:22;;;;;;;13.47;9.37;;;;;;;;;;5080594;28;20229;-81
2022/03/20 12:52:52;;;;;;;14.60;9.50;;;;;;;;;;5079120;28;20282;-82
2022/03/20 12:55:18;;;;;;;12.90;9.47;;;;;;;;;;5078261;28;20181;-81
2022/03/20 12:57:45;;;;;;;14.30;9.07;;;;;;;;;;5072103;28;20739;-82
2022/03/20 13:00:14;;;;;;;11.87;9.30;;;;;;;;;;5041480;28;20206;-83
2022/03/20 13:02:59;;;;;;;12.03;9.63;;;;;;;;;;5074553;28;20225;-83
2022/03/20 13:05:26;;;;;;;13.67;9.63;;;;;;;;;;5084722;28;20220;-83
2022/03/20 13:07:53;;;;;;;11.63;9.00;;;;;;;;;;5087546;28;20198;-83
2022/03/20 13:10:20;;;;;;;11.50;9.23;;;;;;;;;;5049925;28;20279;-82
2022/03/20 13:12:51;;;;;;;11.83;9.37;;;;;;;;;;5080615;28;20218;-83
2022/03/20 13:15:24;;;;;;;10.70;8.50;;;;;;;;;;5098761;28;20199;-83
2022/03/20 13:17:50;;;;;;;10.83;8.37;;;;;;;;;;5087196;28;20173;-83
2022/03/20 13:20:21;;;;;;;13.43;9.60;;;;;;;;;;5088022;28;20192;-83
2022/03/20 13:22:47;;;;;;;12.30;8.90;;;;;;;;;;5084991;28;20208;-83
2022/03/20 13:25:17;;;;;;;11.33;8.83;;;;;;;;;;5083222;28;20197;-83
2022/03/20 13:27:46;;;;;;;11.10;8.30;;;;;;;;;;5080482;28;20249;-83
2022/03/20 13:30:14;;;;;;;13.37;8.83;;;;;;;;;;5048001;28;20204;-83
2022/03/20 13:32:41;;;;;;;9.17;7.97;;;;;;;;;;5073389;28;20201;-83
2022/03/20 13:35:08;;;;;;;12.70;8.90;;;;;;;;;;5070725;28;20251;-83
2022/03/20 13:37:34;;;;;;;12.50;8.43;;;;;;;;;;5078770;28;20671;-83
2022/03/20 13:40:00;;;;;;;12.27;8.53;;;;;;;;;;5072288;28;20561;-83
2022/03/20 13:42:29;;;;;;;10.77;8.07;;;;;;;;;;5070484;28;20203;-83
2022/03/20 13:44:56;;;;;;;10.27;8.17;;;;;;;;;;5075206;28;20214;-83
2022/03/20 13:47:24;;;;;;;9.83;7.90;;;;;;;;;;5076417;28;20722;-83
2022/03/20 13:49:53;;;;;;;10.65;8.38;;;;;;;;;;5076578;28;20841;-82
2022/03/20 13:52:31;;;;;;;12.70;8.37;;;;;;;;;;5075028;28;20660;-84
2022/03/20 13:55:02;;;;;;;10.47;8.27;;;;;;;;;;5078742;28;20190;-80
2022/03/20 13:57:30;;;;;;;10.47;8.80;;;;;;;;;;5072241;28;20185;-84
2022/03/20 14:00:10;;;;;;;11.50;9.10;;;;;;;;;;5073362;28;20194;-82
2022/03/20 14:02:41;;;;;;;12.60;8.63;;;;;;;;;;5072356;28;20383;-82
2022/03/20 14:05:22;;;;;;;10.80;8.13;;;;;;;;;;5074956;28;20192;-82
2022/03/20 14:07:49;;;;;;;10.40;8.57;;;;;;;;;;5074350;28;20274;-82
2022/03/20 14:10:19;;;;;;;11.33;8.03;;;;;;;;;;5076641;28;20188;-82
2022/03/20 14:12:46;;;;;;;11.23;8.00;;;;;;;;;;5076536;28;20212;-84
2022/03/20 14:15:12;;;;;;;9.47;7.77;;;;;;;;;;5078793;28;20178;-82
2022/03/20 14:17:52;;;;;;;11.40;8.23;;;;;;;;;;5075735;28;20851;-80
2022/03/20 14:20:21;;;;;;;10.67;8.17;;;;;;;;;;5067078;28;20185;-82
2022/03/20 14:22:49;;;;;;;12.10;8.50;;;;;;;;;;5075798;28;20292;-83
2022/03/20 14:25:35;;;;;;;10.00;8.03;;;;;;;;;;5079837;28;20984;-81
2022/03/20 14:28:02;;;;;;;11.00;9.80;;;;;;;;;;5077261;28;20657;-84
2022/03/20 14:41:31;;;;;;;11.97;7.63;;;;;;;;;;5070280;28;20302;-79
2022/03/20 14:44:13;;;;;;;9.63;7.87;;;;;;;;;;5074419;28;20882;-79
2022/03/20 14:46:40;;;;;;;9.07;7.73;;;;;;;;;;5064574;28;20196;-79
2022/03/20 14:49:07;;;;;;;10.60;8.03;;;;;;;;;;5072242;28;20688;-79
2022/03/20 14:51:33;;;;;;;8.63;7.50;;;;;;;;;;5068865;28;20200;-80
2022/03/20 14:54:00;;;;;;;10.77;8.03;;;;;;;;;;5071738;28;20275;-78
2022/03/20 14:56:27;;;;;;;11.77;7.67;;;;;;;;;;5071848;28;20236;-79
2022/03/20 14:58:54;;;;;;;13.03;8.57;;;;;;;;;;5073071;28;20192;-79
2022/03/20 15:01:21;;;;;;;12.97;7.77;;;;;;;;;;5064829;28;20223;-79
2022/03/20 15:03:47;;;;;;;12.40;7.80;;;;;;;;;;5071428;28;20199;-79